createdAt,value
2018-12-16T00:00:28.952Z,18.30
2018-12-16T00:02:59.793Z,18.60
2018-12-16T00:05:30.564Z,18.37
2018-12-16T00:07:59.380Z,19.73
2018-12-16T00:10:28.334Z,18.82
2018-12-16T00:12:57.287Z,19.63
2018-12-16T00:15:26.283Z,21.15
2018-12-16T00:17:55.097Z,19.98
2018-12-16T00:20:23.932Z,20.20
2018-12-16T00:22:52.760Z,19.62
2018-12-16T00:25:21.848Z,20.60
2018-12-16T00:27:50.711Z,19.95
2018-12-16T00:30:19.687Z,20.05
2018-12-16T00:32:48.519Z,20.02
2018-12-16T00:35:17.410Z,20.40
2018-12-16T00:37:46.215Z,20.85
2018-12-16T00:40:15.055Z,20.50
2018-12-16T00:42:43.863Z,21.35
2018-12-16T00:45:12.743Z,20.75
2018-12-16T00:47:41.572Z,18.50
2018-12-16T00:50:10.615Z,21.07
2018-12-16T00:52:39.444Z,20.90
2018-12-16T00:55:08.514Z,20.93
2018-12-16T00:57:37.338Z,21.52
2018-12-16T01:00:11.586Z,21.85
2018-12-16T01:02:41.882Z,20.97
2018-12-16T01:05:11.183Z,21.55
2018-12-16T01:07:40.072Z,20.97
2018-12-16T01:10:10.334Z,20.92
2018-12-16T01:12:39.134Z,21.27
2018-12-16T01:15:08.127Z,20.65
2018-12-16T01:17:36.936Z,21.30
2018-12-16T01:20:07.716Z,20.90
2018-12-16T01:22:43.221Z,20.90
2018-12-16T01:25:07.521Z,20.77
2018-12-16T01:27:36.335Z,21.97
2018-12-16T01:30:05.407Z,21.82
2018-12-16T01:32:34.211Z,21.68
2018-12-16T01:35:03.299Z,21.80
2018-12-16T01:37:32.179Z,21.75
2018-12-16T01:40:00.980Z,20.87
2018-12-16T01:42:29.775Z,21.53
2018-12-16T01:44:58.566Z,21.90
2018-12-16T01:47:27.375Z,21.50
2018-12-16T01:49:56.166Z,20.95
2018-12-16T01:52:24.982Z,21.73
2018-12-16T01:54:53.755Z,21.68
2018-12-16T01:57:22.611Z,20.62
2018-12-16T01:59:51.390Z,22.98
2018-12-16T02:02:20.179Z,22.93
2018-12-16T02:04:49.046Z,21.02
2018-12-16T02:07:17.835Z,23.07
2018-12-16T02:09:46.614Z,22.93
2018-12-16T02:12:15.396Z,23.70
2018-12-16T02:14:44.253Z,23.95
2018-12-16T02:17:13.095Z,26.90
2018-12-16T02:19:41.975Z,22.85
2018-12-16T02:22:10.786Z,25.75
2018-12-16T02:24:39.689Z,27.45
2018-12-16T02:27:08.502Z,27.87
2018-12-16T02:29:37.346Z,27.75
2018-12-16T02:32:06.342Z,27.20
2018-12-16T02:34:36.213Z,28.40
2018-12-16T02:37:05.039Z,27.05
2018-12-16T02:39:33.867Z,28.83
2018-12-16T02:42:02.798Z,28.65
2018-12-16T02:44:31.632Z,29.18
2018-12-16T02:47:00.460Z,28.20
2018-12-16T02:49:29.310Z,28.12
2018-12-16T02:51:58.203Z,26.40
2018-12-16T02:54:27.015Z,28.38
2018-12-16T02:56:55.843Z,27.32
2018-12-16T02:59:24.711Z,27.07
2018-12-16T03:01:53.603Z,28.07
2018-12-16T03:04:22.436Z,28.98
2018-12-16T03:06:51.242Z,27.33
2018-12-16T03:09:20.047Z,27.50
2018-12-16T03:11:48.878Z,28.63
2018-12-16T03:14:17.705Z,28.33
2018-12-16T03:16:46.519Z,26.70
2018-12-16T03:19:15.332Z,29.27
2018-12-16T03:21:44.234Z,28.73
2018-12-16T03:24:13.043Z,29.35
2018-12-16T03:26:41.980Z,28.15
2018-12-16T03:29:10.871Z,29.72
2018-12-16T03:31:39.717Z,29.00
2018-12-16T03:34:08.535Z,27.13
2018-12-16T03:36:37.384Z,30.15
2018-12-16T03:39:07.326Z,28.25
2018-12-16T03:41:37.121Z,30.50
2018-12-16T03:44:06.013Z,29.77
2018-12-16T03:46:34.904Z,30.30
2018-12-16T03:49:03.699Z,30.02
2018-12-16T03:51:32.510Z,27.07
2018-12-16T03:54:01.407Z,28.38
2018-12-16T03:56:30.244Z,28.10
2018-12-16T03:59:20.676Z,27.67
2018-12-16T04:01:57.870Z,30.00
2018-12-16T04:04:27.569Z,29.03
2018-12-16T04:06:56.392Z,30.80
2018-12-16T04:09:25.198Z,29.07
2018-12-16T04:11:54.040Z,28.50
2018-12-16T04:14:22.862Z,29.17
2018-12-16T04:16:53.612Z,29.63
2018-12-16T04:19:22.490Z,30.97
2018-12-16T04:21:51.300Z,31.93
2018-12-16T04:24:20.099Z,30.75
2018-12-16T04:26:48.935Z,33.35
2018-12-16T04:29:17.763Z,33.33
2018-12-16T04:31:46.563Z,31.42
2018-12-16T04:34:15.348Z,30.92
2018-12-16T04:36:44.175Z,31.95
2018-12-16T04:39:12.936Z,30.52
2018-12-16T04:41:41.736Z,31.25
2018-12-16T04:44:10.573Z,30.10
2018-12-16T04:46:40.518Z,29.05
2018-12-16T04:49:09.305Z,29.18
2018-12-16T04:51:38.109Z,27.75
2018-12-16T04:54:06.918Z,30.45
2018-12-16T04:56:35.698Z,28.90
2018-12-16T04:59:04.531Z,28.65
2018-12-16T05:01:33.335Z,28.17
2018-12-16T05:04:02.131Z,27.52
2018-12-16T05:06:30.939Z,28.83
2018-12-16T05:08:59.743Z,28.77
2018-12-16T05:11:28.643Z,29.70
2018-12-16T05:13:57.439Z,28.40
2018-12-16T05:16:26.293Z,29.30
2018-12-16T05:18:55.083Z,26.73
2018-12-16T05:21:23.888Z,29.32
2018-12-16T05:23:52.794Z,29.12
2018-12-16T05:26:21.610Z,29.92
2018-12-16T05:28:50.496Z,29.23
2018-12-16T05:31:19.322Z,29.93
2018-12-16T05:33:48.142Z,28.23
2018-12-16T05:36:16.942Z,27.60
2018-12-16T05:38:45.762Z,28.75
2018-12-16T05:41:14.570Z,27.52
2018-12-16T05:43:43.382Z,27.35
2018-12-16T05:46:12.218Z,28.25
2018-12-16T05:48:41.045Z,27.20
2018-12-16T05:51:09.890Z,24.25
2018-12-16T05:53:38.697Z,25.92
2018-12-16T05:56:07.677Z,26.70
2018-12-16T05:58:36.543Z,25.77
2018-12-16T06:01:05.403Z,28.12
2018-12-16T06:03:34.261Z,25.92
2018-12-16T06:06:03.117Z,26.53
2018-12-16T06:08:32.145Z,26.30
2018-12-16T06:11:01.003Z,27.10
2018-12-16T06:13:30.408Z,26.70
2018-12-16T06:15:59.218Z,27.47
2018-12-16T06:18:28.183Z,25.97
2018-12-16T06:20:57.087Z,26.60
2018-12-16T06:23:26.006Z,26.65
2018-12-16T06:25:54.832Z,25.80
2018-12-16T06:28:23.680Z,25.80
2018-12-16T06:30:52.705Z,26.62
2018-12-16T06:33:21.549Z,27.50
2018-12-16T06:35:50.373Z,27.77
2018-12-16T06:38:19.168Z,27.03
2018-12-16T06:40:48.004Z,26.03
2018-12-16T06:43:16.866Z,27.37
2018-12-16T06:45:45.713Z,27.55
2018-12-16T06:48:14.530Z,26.37
2018-12-16T06:50:43.301Z,28.05
2018-12-16T06:53:12.095Z,27.62
2018-12-16T06:55:43.403Z,27.13
2018-12-16T06:58:11.702Z,27.30
2018-12-16T07:00:40.498Z,26.80
2018-12-16T07:03:09.301Z,27.22
2018-12-16T07:05:38.097Z,27.40
2018-12-16T07:08:06.891Z,27.27
2018-12-16T07:10:35.791Z,27.10
2018-12-16T07:13:04.744Z,26.17
2018-12-16T07:15:33.666Z,26.68
2018-12-16T07:18:02.574Z,25.60
2018-12-16T07:20:31.435Z,25.85
2018-12-16T07:23:01.286Z,26.97
2018-12-16T07:25:30.189Z,28.00
2018-12-16T07:27:59.125Z,25.83
2018-12-16T07:30:28.167Z,26.00
2018-12-16T07:32:57.035Z,25.97
2018-12-16T07:35:26.280Z,25.68
2018-12-16T07:37:55.274Z,26.82
2018-12-16T07:40:24.154Z,27.27
2018-12-16T07:42:53.092Z,26.70
2018-12-16T07:45:22.110Z,25.50
2018-12-16T07:47:51.382Z,26.20
2018-12-16T07:50:20.416Z,25.27
2018-12-16T07:52:49.485Z,25.20
2018-12-16T07:55:18.930Z,25.30
2018-12-16T07:59:21.293Z,26.57
2018-12-16T08:01:50.078Z,26.73
2018-12-16T08:04:18.941Z,26.23
2018-12-16T08:06:47.765Z,25.70
2018-12-16T08:09:16.538Z,26.80
2018-12-16T08:11:45.330Z,26.63
2018-12-16T08:14:14.172Z,27.37
2018-12-16T08:16:42.971Z,26.20
2018-12-16T08:19:11.968Z,25.57
2018-12-16T08:21:40.869Z,26.20
2018-12-16T08:24:09.706Z,26.55
2018-12-16T08:26:38.613Z,25.68
2018-12-16T08:29:07.503Z,27.07
2018-12-16T08:31:36.397Z,26.73
2018-12-16T08:34:05.214Z,27.45
2018-12-16T08:36:35.264Z,27.80
2018-12-16T08:39:11.410Z,26.45
2018-12-16T08:41:40.291Z,27.95
2018-12-16T08:44:09.133Z,27.98
2018-12-16T08:46:37.962Z,28.02
2018-12-16T08:49:06.803Z,28.47
2018-12-16T08:51:35.629Z,27.15
2018-12-16T08:54:04.543Z,27.75
2018-12-16T08:56:33.346Z,28.15
2018-12-16T08:59:02.158Z,27.42
2018-12-16T09:01:31.091Z,28.47
2018-12-16T09:04:00.210Z,28.32
2018-12-16T09:06:29.114Z,27.87
2018-12-16T09:08:58.474Z,28.12
2018-12-16T09:11:27.264Z,26.65
2018-12-16T09:13:56.099Z,28.95
2018-12-16T09:16:25.000Z,27.50
2018-12-16T09:18:53.774Z,29.80
2018-12-16T09:21:22.539Z,27.67
2018-12-16T09:23:51.338Z,27.75
2018-12-16T09:26:20.105Z,28.62
2018-12-16T09:28:48.920Z,27.05
2018-12-16T09:31:17.838Z,28.30
2018-12-16T09:33:46.618Z,28.50
2018-12-16T09:36:15.410Z,27.77
2018-12-16T09:38:44.356Z,27.70
2018-12-16T09:41:13.174Z,28.43
2018-12-16T09:43:41.971Z,29.07
2018-12-16T09:46:10.786Z,28.97
2018-12-16T09:48:39.650Z,29.47
2018-12-16T09:51:08.503Z,28.70
2018-12-16T09:53:37.515Z,29.67
2018-12-16T09:56:06.306Z,28.10
2018-12-16T09:58:35.066Z,29.12
2018-12-16T10:01:04.073Z,28.85
2018-12-16T10:03:33.115Z,28.92
2018-12-16T10:06:01.995Z,28.92
2018-12-16T10:08:30.804Z,29.87
2018-12-16T10:10:59.646Z,28.55
2018-12-16T10:13:28.476Z,28.95
2018-12-16T10:15:57.338Z,28.85
2018-12-16T10:18:32.445Z,29.95
2018-12-16T10:21:01.273Z,27.67
2018-12-16T10:23:30.094Z,28.77
2018-12-16T10:25:58.874Z,27.97
2018-12-16T10:28:27.711Z,29.80
2018-12-16T10:30:56.638Z,28.45
2018-12-16T10:33:25.462Z,30.53
2018-12-16T10:35:54.259Z,29.73
2018-12-16T10:38:23.045Z,28.87
2018-12-16T10:40:51.859Z,28.50
2018-12-16T10:43:20.766Z,28.50
2018-12-16T10:45:49.739Z,27.13
2018-12-16T10:48:19.662Z,29.20
2018-12-16T10:50:48.535Z,28.12
2018-12-16T10:53:17.370Z,30.57
2018-12-16T10:55:46.162Z,29.90
2018-12-16T10:58:14.986Z,30.25
2018-12-16T11:00:49.095Z,29.30
2018-12-16T11:03:17.962Z,27.35
2018-12-16T11:05:46.798Z,28.45
2018-12-16T11:08:15.913Z,27.42
2018-12-16T11:10:44.696Z,29.25
2018-12-16T11:13:13.581Z,30.15
2018-12-16T11:15:42.474Z,29.45
2018-12-16T11:18:11.413Z,26.97
2018-12-16T11:20:42.177Z,27.43
2018-12-16T11:23:11.014Z,27.82
2018-12-16T11:25:46.823Z,27.67
2018-12-16T11:28:15.616Z,27.52
2018-12-16T11:30:44.407Z,27.65
2018-12-16T11:33:20.694Z,28.12
2018-12-16T11:35:52.284Z,27.85
2018-12-16T11:38:21.152Z,27.63
2018-12-16T11:40:49.946Z,27.90
2018-12-16T11:43:18.747Z,29.30
2018-12-16T11:45:47.649Z,28.47
2018-12-16T11:48:16.542Z,29.60
2018-12-16T11:50:45.442Z,29.33
2018-12-16T11:53:14.229Z,29.30
2018-12-16T11:55:43.239Z,29.37
2018-12-16T11:58:12.125Z,29.65
2018-12-16T12:00:40.972Z,29.12
2018-12-16T12:03:09.770Z,29.23
2018-12-16T12:05:40.632Z,29.83
2018-12-16T12:08:09.411Z,30.88
2018-12-16T12:10:38.218Z,30.07
2018-12-16T12:13:07.105Z,30.60
2018-12-16T12:15:35.996Z,29.77
2018-12-16T12:18:04.780Z,29.47
2018-12-16T12:20:33.712Z,29.87
2018-12-16T12:23:02.482Z,29.77
2018-12-16T12:25:31.563Z,30.17
2018-12-16T12:28:00.567Z,29.55
2018-12-16T12:30:29.427Z,30.27
2018-12-16T12:32:58.250Z,30.20
2018-12-16T12:35:27.129Z,31.33
2018-12-16T12:37:56.046Z,30.35
2018-12-16T12:40:24.835Z,30.10
2018-12-16T12:42:53.742Z,29.70
2018-12-16T12:45:22.586Z,28.83
2018-12-16T12:47:51.379Z,28.95
2018-12-16T12:50:20.346Z,31.42
2018-12-16T12:52:49.135Z,30.32
2018-12-16T12:55:17.992Z,30.15
2018-12-16T12:57:46.804Z,30.15
2018-12-16T13:00:15.811Z,30.32
2018-12-16T13:02:44.627Z,30.37
2018-12-16T13:05:13.407Z,29.00
2018-12-16T13:07:42.222Z,28.83
2018-12-16T13:10:12.178Z,29.98
2018-12-16T13:12:40.980Z,29.77
2018-12-16T13:15:09.925Z,29.27
2018-12-16T13:17:38.811Z,29.35
2018-12-16T13:20:07.939Z,29.45
2018-12-16T13:22:36.758Z,29.50
2018-12-16T13:25:17.018Z,28.97
2018-12-16T13:27:45.896Z,30.05
2018-12-16T13:30:14.858Z,30.05
2018-12-16T13:32:43.774Z,29.85
2018-12-16T13:35:12.625Z,30.32
2018-12-16T13:37:41.415Z,29.42
2018-12-16T13:40:10.418Z,29.98
2018-12-16T13:42:39.251Z,31.20
2018-12-16T13:45:08.262Z,30.13
2018-12-16T13:47:37.128Z,29.60
2018-12-16T13:50:08.152Z,30.95
2018-12-16T13:52:37.031Z,29.47
2018-12-16T13:55:06.927Z,30.97
2018-12-16T13:57:36.597Z,29.63
2018-12-16T14:00:06.492Z,31.20
2018-12-16T14:02:35.349Z,31.00
2018-12-16T14:05:05.388Z,30.48
2018-12-16T14:07:34.188Z,32.60
2018-12-16T14:10:03.203Z,31.20
2018-12-16T14:12:32.015Z,30.77
2018-12-16T14:15:00.825Z,32.63
2018-12-16T14:17:29.789Z,31.30
2018-12-16T14:19:58.666Z,31.30
2018-12-16T14:22:27.645Z,31.50
2018-12-16T14:24:56.620Z,33.25
2018-12-16T14:27:25.423Z,33.30
2018-12-16T14:29:54.251Z,32.15
2018-12-16T14:32:23.153Z,33.83
2018-12-16T14:34:51.986Z,33.28
2018-12-16T14:37:20.889Z,34.25
2018-12-16T14:39:49.742Z,30.15
2018-12-16T14:42:18.556Z,32.60
2018-12-16T14:44:47.431Z,33.60
2018-12-16T14:47:16.220Z,33.83
2018-12-16T14:49:45.071Z,32.95
2018-12-16T14:52:13.859Z,34.83
2018-12-16T14:54:42.636Z,34.40
2018-12-16T14:57:11.515Z,33.73
2018-12-16T14:59:40.355Z,32.00
2018-12-16T15:02:09.171Z,31.82
2018-12-16T15:04:38.367Z,32.03
2018-12-16T15:07:07.225Z,32.55
2018-12-16T15:09:36.081Z,32.00
2018-12-16T15:12:05.097Z,32.38
2018-12-16T15:14:33.994Z,32.60
2018-12-16T15:17:03.010Z,31.70
2018-12-16T15:19:32.097Z,32.38
2018-12-16T15:22:01.233Z,32.42
2018-12-16T15:24:30.213Z,31.33
2018-12-16T15:26:59.505Z,32.65
2018-12-16T15:29:28.533Z,33.28
2018-12-16T15:31:58.568Z,31.87
2018-12-16T15:34:27.648Z,32.73
2018-12-16T15:36:56.608Z,33.48
2018-12-16T15:39:25.720Z,32.85
2018-12-16T15:41:54.697Z,32.53
2018-12-16T15:44:23.752Z,33.00
2018-12-16T15:46:52.724Z,33.33
2018-12-16T15:49:22.510Z,30.60
2018-12-16T15:51:52.151Z,32.13
2018-12-16T15:54:21.050Z,32.10
2018-12-16T15:56:50.081Z,32.50
2018-12-16T15:59:18.900Z,32.90
2018-12-16T16:01:47.786Z,32.05
2018-12-16T16:04:16.757Z,32.15
2018-12-16T16:06:45.615Z,31.57
2018-12-16T16:09:14.593Z,32.55
2018-12-16T16:11:43.513Z,34.85
2018-12-16T16:14:12.445Z,32.33
2018-12-16T16:16:44.150Z,31.95
2018-12-16T16:19:13.687Z,31.30
2018-12-16T16:21:42.767Z,32.17
2018-12-16T16:24:11.741Z,30.77
2018-12-16T16:26:40.697Z,30.52
2018-12-16T16:29:09.565Z,30.62
2018-12-16T16:31:39.354Z,30.32
2018-12-16T16:34:08.211Z,31.15
2018-12-16T16:36:37.216Z,31.15
2018-12-16T16:39:07.160Z,31.55
2018-12-16T16:41:36.313Z,30.93
2018-12-16T16:44:05.313Z,30.35
2018-12-16T16:46:34.306Z,30.27
2018-12-16T16:49:03.180Z,30.50
2018-12-16T16:51:32.196Z,30.90
2018-12-16T16:54:01.068Z,31.20
2018-12-16T16:56:30.078Z,31.73
2018-12-16T16:58:58.960Z,31.17
2018-12-16T17:01:27.867Z,31.33
2018-12-16T17:03:56.759Z,32.10
2018-12-16T17:06:25.644Z,30.43
2018-12-16T17:08:55.255Z,33.60
2018-12-16T17:11:24.818Z,31.35
2018-12-16T17:13:54.670Z,31.93
2018-12-16T17:16:25.228Z,30.92
2018-12-16T17:18:54.746Z,31.25
2018-12-16T17:21:23.630Z,32.70
2018-12-16T17:23:52.505Z,31.33
2018-12-16T17:26:21.362Z,30.52
2018-12-16T17:28:50.220Z,28.77
2018-12-16T17:31:19.062Z,29.48
2018-12-16T17:33:48.005Z,29.15
2018-12-16T17:36:16.854Z,28.98
2018-12-16T17:38:45.718Z,29.25
2018-12-16T17:41:14.571Z,29.27
2018-12-16T17:43:54.940Z,29.35
2018-12-16T17:46:23.973Z,28.57
2018-12-16T17:48:52.856Z,30.23
2018-12-16T17:51:22.837Z,31.73
2018-12-16T17:53:51.781Z,29.93
2018-12-16T17:56:20.739Z,29.27
2018-12-16T17:58:52.540Z,30.27
2018-12-16T18:01:21.735Z,29.45
2018-12-16T18:03:50.755Z,28.95
2018-12-16T18:06:19.605Z,31.23
2018-12-16T18:08:48.474Z,30.82
2018-12-16T18:11:17.331Z,30.15
2018-12-16T18:13:46.193Z,30.43
2018-12-16T18:16:15.076Z,28.73
2018-12-16T18:18:43.932Z,31.27
2018-12-16T18:21:12.778Z,29.70
2018-12-16T18:23:41.757Z,29.85
2018-12-16T18:26:10.590Z,30.00
2018-12-16T18:28:39.724Z,30.57
2018-12-16T18:31:08.570Z,29.50
2018-12-16T18:33:37.740Z,27.15
2018-12-16T18:36:06.590Z,26.63
2018-12-16T18:38:35.490Z,27.53
2018-12-16T18:41:04.415Z,28.03
2018-12-16T18:44:36.804Z,28.60
2018-12-16T18:47:05.776Z,27.55
2018-12-16T18:49:34.623Z,27.48
2018-12-16T18:52:03.732Z,28.65
2018-12-16T18:54:32.678Z,27.75
2018-12-16T18:57:07.153Z,30.25
2018-12-16T18:59:32.373Z,29.42
2018-12-16T19:02:01.303Z,29.80
2018-12-16T19:04:30.224Z,28.12
2018-12-16T19:06:59.770Z,27.42
2018-12-16T19:09:28.674Z,28.23
2018-12-16T19:11:57.661Z,28.42
2018-12-16T19:14:26.730Z,28.87
2018-12-16T19:16:55.569Z,28.73
2018-12-16T19:19:24.587Z,27.42
2018-12-16T19:21:53.600Z,27.98
2018-12-16T19:24:22.590Z,27.90
2018-12-16T19:26:57.959Z,28.47
2018-12-16T19:29:22.437Z,27.85
2018-12-16T19:31:51.589Z,27.42
2018-12-16T19:34:20.629Z,27.75
2018-12-16T19:36:49.671Z,27.20
2018-12-16T19:39:19.679Z,27.02
2018-12-16T19:41:48.678Z,26.62
2018-12-16T19:44:17.564Z,26.23
2018-12-16T19:46:46.613Z,27.02
2018-12-16T19:49:15.529Z,26.70
2018-12-16T19:51:44.517Z,27.67
2018-12-16T19:54:13.600Z,26.93
2018-12-16T19:56:42.620Z,27.63
2018-12-16T19:59:11.513Z,26.97
2018-12-16T20:01:41.734Z,24.52
2018-12-16T20:04:17.161Z,25.65
2018-12-16T20:06:47.541Z,25.23
2018-12-16T20:09:16.444Z,24.20
2018-12-16T20:11:45.529Z,24.35
2018-12-16T20:14:14.377Z,24.77
2018-12-16T20:16:43.364Z,25.20
2018-12-16T20:19:14.134Z,24.52
2018-12-16T20:21:43.446Z,23.73
2018-12-16T20:24:12.367Z,24.67
2018-12-16T20:26:41.369Z,23.22
2018-12-16T20:29:10.262Z,23.50
2018-12-16T20:31:39.161Z,23.92
2018-12-16T20:34:08.212Z,22.95
2018-12-16T20:36:37.132Z,22.70
2018-12-16T20:39:08.258Z,22.90
2018-12-16T20:41:37.089Z,22.62
2018-12-16T20:44:05.964Z,22.73
2018-12-16T20:46:34.985Z,23.47
2018-12-16T20:49:04.132Z,23.35
2018-12-16T20:51:33.026Z,21.43
2018-12-16T20:54:02.148Z,20.63
2018-12-16T20:56:31.116Z,21.45
2018-12-16T20:59:00.237Z,21.07
2018-12-16T21:01:29.151Z,20.80
2018-12-16T21:03:58.025Z,20.50
2018-12-16T21:06:27.017Z,22.35
2018-12-16T21:08:56.044Z,22.60
2018-12-16T21:11:30.370Z,26.05
2018-12-16T21:14:04.819Z,20.95
2018-12-16T21:16:39.204Z,20.55
2018-12-16T21:19:08.144Z,21.05
2018-12-16T21:21:37.150Z,20.50
2018-12-16T21:24:06.160Z,21.07
2018-12-16T21:26:35.034Z,20.88
2018-12-16T21:29:03.964Z,20.43
2018-12-16T21:31:32.841Z,19.85
2018-12-16T21:34:01.908Z,20.08
2018-12-16T21:36:31.733Z,20.62
2018-12-16T21:39:00.715Z,21.77
2018-12-16T21:41:29.625Z,20.00
2018-12-16T21:43:58.602Z,22.32
2018-12-16T21:46:27.504Z,21.03
2018-12-16T21:48:56.441Z,21.03
2018-12-16T21:51:25.357Z,21.30
2018-12-16T21:53:54.425Z,21.60
2018-12-16T21:56:23.437Z,20.37
2018-12-16T21:58:52.519Z,21.20
2018-12-16T22:01:21.432Z,21.10
2018-12-16T22:03:50.524Z,22.10
2018-12-16T22:06:19.434Z,21.75
2018-12-16T22:08:48.409Z,20.77
2018-12-16T22:11:17.303Z,21.57
2018-12-16T22:13:46.309Z,21.95
2018-12-16T22:16:15.250Z,22.40
2018-12-16T22:18:44.330Z,22.07
2018-12-16T22:21:13.197Z,20.72
2018-12-16T22:23:42.375Z,23.10
2018-12-16T22:26:11.262Z,20.88
2018-12-16T22:28:40.333Z,21.97
2018-12-16T22:31:09.357Z,20.73
2018-12-16T22:33:38.342Z,20.40
2018-12-16T22:36:07.414Z,20.30
2018-12-16T22:38:36.578Z,20.25
2018-12-16T22:41:05.564Z,19.60
2018-12-16T22:43:34.669Z,20.02
2018-12-16T22:46:03.575Z,21.70
2018-12-16T22:48:32.557Z,21.17
2018-12-16T22:51:01.458Z,20.00
2018-12-16T22:53:30.598Z,19.67
2018-12-16T22:55:59.685Z,24.60
2018-12-16T22:58:28.871Z,19.55
2018-12-16T23:01:03.370Z,20.08
2018-12-16T23:03:34.096Z,20.75
2018-12-16T23:06:03.199Z,19.25
2018-12-16T23:08:32.230Z,19.50
2018-12-16T23:11:01.161Z,19.27
2018-12-16T23:13:30.178Z,19.48
2018-12-16T23:16:00.208Z,19.00
2018-12-16T23:18:30.304Z,20.17
2018-12-16T23:20:59.262Z,18.65
2018-12-16T23:23:28.137Z,18.07
2018-12-16T23:25:57.013Z,18.48
2018-12-16T23:28:26.032Z,18.15
2018-12-16T23:30:55.005Z,18.75
2018-12-16T23:33:24.013Z,18.80
2018-12-16T23:35:52.939Z,19.07
2018-12-16T23:38:22.242Z,19.30
2018-12-16T23:40:51.363Z,18.98
2018-12-16T23:43:20.405Z,18.23
2018-12-16T23:45:49.536Z,18.90
2018-12-16T23:48:18.494Z,18.25
2018-12-16T23:50:47.397Z,17.98
2018-12-16T23:53:17.623Z,18.65
2018-12-16T23:55:46.601Z,19.27
2018-12-16T23:58:15.591Z,18.98
